createdAt,value
2018-06-03T00:02:08.335Z,2.97
2018-06-03T00:04:36.403Z,3.43
2018-06-03T00:07:04.579Z,3.00
2018-06-03T00:09:32.635Z,2.87
2018-06-03T00:12:00.531Z,2.83
2018-06-03T00:14:28.545Z,3.10
2018-06-03T00:16:56.662Z,3.40
2018-06-03T00:19:24.517Z,3.00
2018-06-03T00:21:52.549Z,3.20
2018-06-03T00:24:20.607Z,3.27
2018-06-03T00:26:48.432Z,3.97
2018-06-03T00:29:16.344Z,3.60
2018-06-03T00:31:44.781Z,3.50
2018-06-03T00:34:12.627Z,3.10
2018-06-03T00:36:43.893Z,3.20
2018-06-03T00:39:12.147Z,3.43
2018-06-03T00:41:40.067Z,3.43
2018-06-03T00:44:07.909Z,3.43
2018-06-03T00:46:36.131Z,3.20
2018-06-03T00:49:04.022Z,3.10
2018-06-03T00:51:31.809Z,3.03
2018-06-03T00:54:00.188Z,3.27
2018-06-03T00:56:40.137Z,3.20
2018-06-03T01:02:14.172Z,3.90
2018-06-03T01:04:43.972Z,3.13
2018-06-03T01:07:13.851Z,3.63
2018-06-03T01:09:43.426Z,2.97
2018-06-03T01:12:13.227Z,3.10
2018-06-03T01:14:42.551Z,2.80
2018-06-03T01:17:12.147Z,3.07
2018-06-03T01:19:41.969Z,3.10
2018-06-03T01:22:11.279Z,3.17
2018-06-03T01:24:41.301Z,3.60
2018-06-03T01:27:11.201Z,3.43
2018-06-03T01:30:44.047Z,3.13
2018-06-03T01:33:13.777Z,3.50
2018-06-03T01:35:43.316Z,3.40
2018-06-03T01:38:13.230Z,3.40
2018-06-03T01:40:42.960Z,9.80
2018-06-03T01:43:12.787Z,8.10
2018-06-03T01:45:42.904Z,3.60
2018-06-03T01:48:12.495Z,4.00
2018-06-03T01:50:42.392Z,3.50
2018-06-03T01:53:12.677Z,3.73
2018-06-03T01:55:42.251Z,3.43
2018-06-03T01:58:12.088Z,3.50
2018-06-03T02:00:42.509Z,3.60
2018-06-03T02:03:18.499Z,3.73
2018-06-03T02:05:49.048Z,3.80
2018-06-03T02:08:18.791Z,3.63
2018-06-03T02:10:49.497Z,3.70
2018-06-03T02:13:19.379Z,3.20
2018-06-03T02:15:48.979Z,4.40
2018-06-03T02:18:18.844Z,3.90
2018-06-03T02:20:48.296Z,4.40
2018-06-03T02:23:17.785Z,3.63
2018-06-03T02:25:47.900Z,3.57
2018-06-03T02:28:17.645Z,3.30
2018-06-03T02:30:47.204Z,3.70
2018-06-03T02:33:17.146Z,3.60
2018-06-03T02:35:46.564Z,3.80
2018-06-03T02:38:16.188Z,3.50
2018-06-03T02:40:46.362Z,3.80
2018-06-03T02:43:15.896Z,3.60
2018-06-03T02:45:45.545Z,3.40
2018-06-03T02:48:15.198Z,3.63
2018-06-03T02:50:44.676Z,3.37
2018-06-03T02:53:14.507Z,3.47
2018-06-03T02:55:44.085Z,3.37
2018-06-03T02:58:13.591Z,3.40
2018-06-03T03:00:43.249Z,3.60
2018-06-03T03:03:13.299Z,3.70
2018-06-03T03:05:42.563Z,3.30
2018-06-03T03:08:12.238Z,3.57
2018-06-03T03:10:41.900Z,3.63
2018-06-03T03:13:11.361Z,3.43
2018-06-03T03:15:40.919Z,3.10
2018-06-03T03:18:10.469Z,3.63
2018-06-03T03:20:39.856Z,3.30
2018-06-03T03:23:09.379Z,3.40
2018-06-03T03:25:39.058Z,3.27
2018-06-03T03:28:08.380Z,3.20
2018-06-03T03:30:38.386Z,3.40
2018-06-03T03:33:07.931Z,3.13
2018-06-03T03:35:37.498Z,2.90
2018-06-03T03:38:07.006Z,2.97
2018-06-03T03:40:36.687Z,3.70
2018-06-03T03:43:06.425Z,3.23
2018-06-03T03:45:35.689Z,3.30
2018-06-03T03:48:05.369Z,3.50
2018-06-03T03:50:34.953Z,3.20
2018-06-03T03:53:04.448Z,3.30
2018-06-03T03:55:34.297Z,3.20
2018-06-03T03:58:04.072Z,2.90
2018-06-03T04:00:33.494Z,3.10
2018-06-03T04:03:03.709Z,3.40
2018-06-03T04:05:33.776Z,3.00
2018-06-03T04:08:03.253Z,3.33
2018-06-03T04:10:33.142Z,3.57
2018-06-03T04:13:02.834Z,3.20
2018-06-03T04:15:32.462Z,3.30
2018-06-03T04:18:02.461Z,3.30
2018-06-03T04:20:32.294Z,3.40
2018-06-03T04:23:01.844Z,3.33
2018-06-03T04:25:31.867Z,3.40
2018-06-03T04:28:01.770Z,3.13
2018-06-03T04:30:31.364Z,3.40
2018-06-03T04:33:01.384Z,3.47
2018-06-03T04:35:30.702Z,3.60
2018-06-03T04:38:00.250Z,3.40
2018-06-03T04:40:29.974Z,3.50
2018-06-03T04:42:59.523Z,3.20
2018-06-03T04:45:29.187Z,3.50
2018-06-03T04:47:59.383Z,3.20
2018-06-03T04:50:28.905Z,3.20
2018-06-03T04:52:58.263Z,3.27
2018-06-03T04:55:28.092Z,3.20
2018-06-03T04:57:57.930Z,3.30
2018-06-03T05:00:27.797Z,3.50
2018-06-03T05:02:57.267Z,3.20
2018-06-03T05:05:26.945Z,3.40
2018-06-03T05:07:56.603Z,3.30
2018-06-03T05:10:26.345Z,3.50
2018-06-03T05:12:55.918Z,3.60
2018-06-03T05:15:25.789Z,3.67
2018-06-03T05:17:55.726Z,3.53
2018-06-03T05:20:25.834Z,3.67
2018-06-03T05:22:55.298Z,3.67
2018-06-03T05:25:24.954Z,3.73
2018-06-03T05:27:54.584Z,3.80
2018-06-03T05:30:23.878Z,3.80
2018-06-03T05:32:53.520Z,3.67
2018-06-03T05:35:23.758Z,3.90
2018-06-03T05:37:53.108Z,3.60
2018-06-03T05:40:22.618Z,3.90
2018-06-03T05:42:52.412Z,4.10
2018-06-03T05:45:21.757Z,3.70
2018-06-03T05:47:51.078Z,3.90
2018-06-03T05:50:20.991Z,3.83
2018-06-03T05:52:50.389Z,3.47
2018-06-03T05:55:19.915Z,3.90
2018-06-03T05:57:49.675Z,3.97
2018-06-03T06:00:19.085Z,3.73
2018-06-03T06:02:48.691Z,3.70
2018-06-03T06:05:18.395Z,4.00
2018-06-03T06:07:47.806Z,3.70
2018-06-03T06:10:17.129Z,3.70
2018-06-03T06:12:46.999Z,3.73
2018-06-03T06:15:16.374Z,3.63
2018-06-03T06:17:45.735Z,3.73
2018-06-03T06:20:15.686Z,3.87
2018-06-03T06:22:45.434Z,3.40
2018-06-03T06:25:15.017Z,3.47
2018-06-03T06:27:44.870Z,3.87
2018-06-03T06:30:14.362Z,3.90
2018-06-03T06:32:43.818Z,3.63
2018-06-03T06:35:13.929Z,3.70
2018-06-03T06:37:43.793Z,3.83
2018-06-03T06:40:13.880Z,3.73
2018-06-03T06:42:43.920Z,3.70
2018-06-03T06:45:13.553Z,3.50
2018-06-03T06:47:43.410Z,3.43
2018-06-03T06:50:13.236Z,8.40
2018-06-03T06:52:43.219Z,21.97
2018-06-03T06:55:12.719Z,5.87
2018-06-03T06:57:43.020Z,8.60
2018-06-03T07:00:12.242Z,6.67
2018-06-03T07:02:42.036Z,5.10
2018-06-03T07:05:11.903Z,4.97
2018-06-03T07:07:41.603Z,4.17
2018-06-03T07:10:11.030Z,4.30
2018-06-03T07:12:40.587Z,4.23
2018-06-03T07:15:10.158Z,4.50
2018-06-03T07:17:39.460Z,4.17
2018-06-03T07:20:08.950Z,4.10
2018-06-03T07:22:38.503Z,4.63
2018-06-03T07:25:07.795Z,4.70
2018-06-03T07:27:37.645Z,4.70
2018-06-03T07:30:07.177Z,5.00
2018-06-03T07:32:36.388Z,4.47
2018-06-03T07:35:05.719Z,5.07
2018-06-03T07:37:35.162Z,4.13
2018-06-03T07:40:04.384Z,4.10
2018-06-03T07:42:34.049Z,4.13
2018-06-03T07:45:03.948Z,4.10
2018-06-03T07:47:33.591Z,4.20
2018-06-03T07:50:03.266Z,3.80
2018-06-03T07:52:32.579Z,4.10
2018-06-03T07:55:02.242Z,4.30
2018-06-03T07:57:32.027Z,4.40
2018-06-03T08:00:01.598Z,4.27
2018-06-03T08:02:31.125Z,4.00
2018-06-03T08:05:01.300Z,3.97
2018-06-03T08:07:31.091Z,4.40
2018-06-03T08:10:00.974Z,3.97
2018-06-03T08:12:30.248Z,4.00
2018-06-03T08:15:00.234Z,4.00
2018-06-03T08:17:29.644Z,4.33
2018-06-03T08:19:59.396Z,3.90
2018-06-03T08:22:28.730Z,4.43
2018-06-03T08:24:59.031Z,4.20
2018-06-03T08:27:28.815Z,4.20
2018-06-03T08:29:58.809Z,4.00
2018-06-03T08:32:28.210Z,4.30
2018-06-03T08:34:57.713Z,4.80
2018-06-03T08:37:28.257Z,4.20
2018-06-03T08:39:57.833Z,4.47
2018-06-03T08:42:27.597Z,4.47
2018-06-03T08:44:57.260Z,4.70
2018-06-03T08:47:26.803Z,4.30
2018-06-03T08:49:56.391Z,4.17
2018-06-03T08:52:26.505Z,4.03
2018-06-03T08:54:56.171Z,3.53
2018-06-03T08:57:25.859Z,3.80
2018-06-03T08:59:55.527Z,4.57
2018-06-03T09:02:25.184Z,4.17
2018-06-03T09:04:55.335Z,3.77
2018-06-03T09:07:25.839Z,4.40
2018-06-03T09:09:55.536Z,4.10
2018-06-03T09:12:25.625Z,4.30
2018-06-03T09:14:56.150Z,3.97
2018-06-03T09:17:25.960Z,4.20
2018-06-03T09:19:55.548Z,4.20
2018-06-03T09:22:25.966Z,4.17
2018-06-03T09:24:55.716Z,3.73
2018-06-03T09:27:25.398Z,3.73
2018-06-03T09:29:55.697Z,3.40
2018-06-03T09:32:25.658Z,3.50
2018-06-03T09:34:55.666Z,3.60
2018-06-03T09:37:25.598Z,3.30
2018-06-03T09:39:55.608Z,4.10
2018-06-03T09:42:25.701Z,3.80
2018-06-03T09:44:56.183Z,4.30
2018-06-03T09:47:25.911Z,4.27
2018-06-03T09:49:55.515Z,3.37
2018-06-03T09:52:25.305Z,3.80
2018-06-03T09:54:55.374Z,3.60
2018-06-03T09:57:25.101Z,3.30
2018-06-03T09:59:55.793Z,3.87
2018-06-03T10:02:25.763Z,3.80
2018-06-03T10:04:55.220Z,3.90
2018-06-03T10:07:25.083Z,3.87
2018-06-03T10:09:54.552Z,3.80
2018-06-03T10:12:24.551Z,4.10
2018-06-03T10:14:54.269Z,3.97
2018-06-03T10:17:23.775Z,4.67
2018-06-03T10:19:53.606Z,4.50
2018-06-03T10:22:23.566Z,4.10
2018-06-03T10:24:52.985Z,4.00
2018-06-03T10:27:22.667Z,3.70
2018-06-03T10:29:52.348Z,4.43
2018-06-03T10:32:21.790Z,3.97
2018-06-03T10:34:51.428Z,4.13
2018-06-03T10:37:21.098Z,4.30
2018-06-03T10:39:50.921Z,4.40
2018-06-03T10:42:21.051Z,4.20
2018-06-03T10:44:50.660Z,3.60
2018-06-03T10:47:20.494Z,4.33
2018-06-03T10:49:50.217Z,4.60
2018-06-03T10:52:19.768Z,4.43
2018-06-03T10:54:49.769Z,4.00
2018-06-03T10:57:19.409Z,4.10
2018-06-03T10:59:49.400Z,4.57
2018-06-03T11:02:19.197Z,4.10
2018-06-03T11:04:49.063Z,4.30
2018-06-03T11:07:19.201Z,4.33
2018-06-03T11:09:48.561Z,4.13
2018-06-03T11:12:18.265Z,4.13
2018-06-03T11:14:48.849Z,4.07
2018-06-03T11:17:18.293Z,4.07
2018-06-03T11:19:48.281Z,4.00
2018-06-03T11:22:18.125Z,4.57
2018-06-03T11:24:47.843Z,4.27
2018-06-03T11:27:17.477Z,4.33
2018-06-03T11:29:47.132Z,4.47
2018-06-03T11:32:16.599Z,4.40
2018-06-03T11:34:46.263Z,4.17
2018-06-03T11:37:16.142Z,4.37
2018-06-03T11:39:45.732Z,4.20
2018-06-03T11:42:15.460Z,4.20
2018-06-03T11:44:45.303Z,4.00
2018-06-03T11:47:14.708Z,3.90
2018-06-03T11:49:44.532Z,4.03
2018-06-03T11:52:14.344Z,4.40
2018-06-03T11:54:43.941Z,4.30
2018-06-03T11:57:14.024Z,4.30
2018-06-03T11:59:44.508Z,3.73
2018-06-03T12:02:17.404Z,3.80
2018-06-03T12:04:47.397Z,3.53
2018-06-03T12:07:16.886Z,4.40
2018-06-03T12:09:47.482Z,3.70
2018-06-03T12:12:21.698Z,3.70
2018-06-03T12:14:51.159Z,3.73
2018-06-03T12:17:21.669Z,4.80
2018-06-03T12:19:52.465Z,3.97
2018-06-03T12:22:23.195Z,4.00
2018-06-03T12:24:53.331Z,3.67
2018-06-03T12:27:23.071Z,4.20
2018-06-03T12:29:53.801Z,3.93
2018-06-03T12:32:23.638Z,3.80
2018-06-03T12:34:54.013Z,4.03
2018-06-03T12:37:23.521Z,3.40
2018-06-03T12:39:54.715Z,4.07
2018-06-03T12:42:24.351Z,3.70
2018-06-03T12:44:54.375Z,3.67
2018-06-03T12:47:24.633Z,3.73
2018-06-03T12:49:55.585Z,3.97
2018-06-03T12:52:24.911Z,4.00
2018-06-03T12:54:54.769Z,4.37
2018-06-03T12:57:24.049Z,3.73
2018-06-03T12:59:53.610Z,3.97
2018-06-03T13:02:23.512Z,3.87
2018-06-03T13:04:53.139Z,3.67
2018-06-03T13:07:23.427Z,3.83
2018-06-03T13:09:52.859Z,3.80
2018-06-03T13:12:23.425Z,3.73
2018-06-03T13:14:53.186Z,3.20
2018-06-03T13:17:23.865Z,3.83
2018-06-03T13:19:54.761Z,3.50
2018-06-03T13:22:24.549Z,3.63
2018-06-03T13:24:54.157Z,3.30
2018-06-03T13:27:24.719Z,3.50
2018-06-03T13:29:54.917Z,3.70
2018-06-03T13:32:29.401Z,3.77
2018-06-03T13:34:59.182Z,3.87
2018-06-03T13:37:28.692Z,3.37
2018-06-03T13:39:58.619Z,3.70
2018-06-03T13:42:28.541Z,3.80
2018-06-03T13:44:58.308Z,3.80
2018-06-03T13:47:28.217Z,3.90
2018-06-03T13:49:57.974Z,4.00
2018-06-03T13:52:28.949Z,3.73
2018-06-03T13:54:59.117Z,3.57
2018-06-03T13:57:29.333Z,3.93
2018-06-03T13:59:59.009Z,4.40
2018-06-03T14:02:30.687Z,3.93
2018-06-03T14:05:00.458Z,3.70
2018-06-03T14:07:30.349Z,3.90
2018-06-03T14:10:00.111Z,3.73
2018-06-03T14:12:31.819Z,3.77
2018-06-03T14:15:04.195Z,4.00
2018-06-03T14:17:34.876Z,3.70
2018-06-03T14:20:04.750Z,3.70
2018-06-03T14:22:39.922Z,3.73
2018-06-03T14:25:09.687Z,4.03
2018-06-03T14:27:39.270Z,4.13
2018-06-03T14:30:09.800Z,3.77
2018-06-03T14:32:40.555Z,4.10
2018-06-03T14:35:10.845Z,4.23
2018-06-03T14:37:40.936Z,3.70
2018-06-03T14:40:11.016Z,3.53
2018-06-03T14:42:40.775Z,3.70
2018-06-03T14:45:12.844Z,3.83
2018-06-03T14:47:42.568Z,3.60
2018-06-03T14:50:13.109Z,4.00
2018-06-03T14:52:42.848Z,3.77
2018-06-03T14:55:12.738Z,4.30
2018-06-03T14:57:49.343Z,4.60
2018-06-03T15:00:19.808Z,4.00
2018-06-03T15:02:49.255Z,4.10
2018-06-03T15:05:19.203Z,3.53
2018-06-03T15:07:48.615Z,3.70
2018-06-03T15:10:18.376Z,4.30
2018-06-03T15:12:49.659Z,3.90
2018-06-03T15:15:19.829Z,3.80
2018-06-03T15:17:49.887Z,4.07
2018-06-03T15:20:19.801Z,4.10
2018-06-03T15:22:49.788Z,3.60
2018-06-03T15:25:20.476Z,3.90
2018-06-03T15:27:50.329Z,3.93
2018-06-03T15:30:20.274Z,4.07
2018-06-03T15:32:50.558Z,3.77
2018-06-03T15:35:21.086Z,3.50
2018-06-03T15:37:59.780Z,3.30
2018-06-03T15:40:30.419Z,3.50
2018-06-03T15:43:01.206Z,3.90
2018-06-03T15:45:34.648Z,3.70
2018-06-03T15:48:04.539Z,4.20
2018-06-03T15:50:35.320Z,3.30
2018-06-03T15:53:05.002Z,3.73
2018-06-03T15:55:37.244Z,3.73
2018-06-03T15:58:07.455Z,3.67
2018-06-03T16:00:37.445Z,4.17
2018-06-03T16:03:07.605Z,4.07
2018-06-03T16:05:38.086Z,3.90
2018-06-03T16:08:07.727Z,3.90
2018-06-03T16:10:38.045Z,3.87
2018-06-03T16:13:08.479Z,3.70
2018-06-03T16:15:39.743Z,4.40
2018-06-03T16:18:09.902Z,3.90
2018-06-03T16:20:41.016Z,3.50
2018-06-03T16:23:10.530Z,3.93
2018-06-03T16:25:41.541Z,3.77
2018-06-03T16:28:12.089Z,3.70
2018-06-03T16:30:41.674Z,4.00
2018-06-03T16:33:11.848Z,3.63
2018-06-03T16:35:41.630Z,3.50
2018-06-03T16:38:11.149Z,4.20
2018-06-03T16:40:40.827Z,4.00
2018-06-03T16:43:11.634Z,4.10
2018-06-03T16:45:45.751Z,3.50
2018-06-03T16:48:15.401Z,3.83
2018-06-03T16:50:44.859Z,4.00
2018-06-03T16:53:15.453Z,3.53
2018-06-03T16:55:45.802Z,3.93
2018-06-03T16:58:15.683Z,3.80
2018-06-03T17:00:45.563Z,3.93
2018-06-03T17:03:15.055Z,3.83
2018-06-03T17:05:45.054Z,4.17
2018-06-03T17:08:14.629Z,3.50
2018-06-03T17:10:43.982Z,3.83
2018-06-03T17:13:13.698Z,4.17
2018-06-03T17:15:43.518Z,3.53
2018-06-03T17:18:13.937Z,4.00
2018-06-03T17:20:44.035Z,3.73
2018-06-03T17:23:16.107Z,3.53
2018-06-03T17:25:52.496Z,3.80
2018-06-03T17:28:22.636Z,3.87
2018-06-03T17:30:52.494Z,3.73
2018-06-03T17:33:24.971Z,4.20
2018-06-03T17:35:54.490Z,4.50
2018-06-03T17:38:23.896Z,3.87
2018-06-03T17:40:53.945Z,3.67
2018-06-03T17:43:23.558Z,3.60
2018-06-03T17:45:56.158Z,4.00
2018-06-03T17:48:26.764Z,3.77
2018-06-03T17:50:56.268Z,3.63
2018-06-03T17:53:26.867Z,4.03
2018-06-03T17:55:57.146Z,3.57
2018-06-03T17:58:26.481Z,3.50
2018-06-03T18:00:55.871Z,4.10
2018-06-03T18:03:25.699Z,4.57
2018-06-03T18:05:55.365Z,4.20
2018-06-03T18:08:25.117Z,3.83
2018-06-03T18:10:54.570Z,3.93
2018-06-03T18:13:23.948Z,4.10
2018-06-03T18:15:53.737Z,3.73
2018-06-03T18:18:23.659Z,4.37
2018-06-03T18:20:52.835Z,3.90
2018-06-03T18:23:22.611Z,4.17
2018-06-03T18:25:52.298Z,3.90
2018-06-03T18:28:22.041Z,4.97
2018-06-03T18:30:51.935Z,4.00
2018-06-03T18:33:21.915Z,4.10
2018-06-03T18:35:51.447Z,4.30
2018-06-03T18:38:21.282Z,3.90
2018-06-03T18:40:51.144Z,3.97
2018-06-03T18:43:20.804Z,4.00
2018-06-03T18:45:50.542Z,4.07
2018-06-03T18:48:20.867Z,4.00
2018-06-03T18:50:50.737Z,3.90
2018-06-03T18:53:21.764Z,4.23
2018-06-03T18:55:51.500Z,4.30
2018-06-03T18:58:20.999Z,4.23
2018-06-03T19:00:50.790Z,4.17
2018-06-03T19:03:20.842Z,4.03
2018-06-03T19:05:50.221Z,4.43
2018-06-03T19:08:19.923Z,4.07
2018-06-03T19:10:49.497Z,3.90
2018-06-03T19:13:18.715Z,3.57
2018-06-03T19:15:48.241Z,4.07
2018-06-03T19:18:18.236Z,3.80
2018-06-03T19:20:47.774Z,4.23
2018-06-03T19:23:17.945Z,3.80
2018-06-03T19:25:47.305Z,3.23
2018-06-03T19:28:16.807Z,3.80
2018-06-03T19:30:46.710Z,3.87
2018-06-03T19:33:16.286Z,4.23
2018-06-03T19:35:45.732Z,4.20
2018-06-03T19:38:15.524Z,5.00
2018-06-03T19:40:45.014Z,5.30
2018-06-03T19:43:14.472Z,5.57
2018-06-03T19:45:44.232Z,5.30
2018-06-03T19:48:13.840Z,5.70
2018-06-03T19:50:44.918Z,5.90
2018-06-03T19:53:14.669Z,5.40
2018-06-03T19:55:44.269Z,5.10
2018-06-03T19:58:14.467Z,5.33
2018-06-03T20:00:44.153Z,5.07
2018-06-03T20:03:13.939Z,5.33
2018-06-03T20:05:43.543Z,4.83
2018-06-03T20:08:13.122Z,4.97
2018-06-03T20:10:42.939Z,4.70
2018-06-03T20:13:12.633Z,5.10
2018-06-03T20:18:34.872Z,5.00
2018-06-03T20:21:04.294Z,4.93
2018-06-03T20:23:33.804Z,4.90
2018-06-03T20:26:03.759Z,5.33
2018-06-03T20:28:33.285Z,5.20
2018-06-03T20:31:02.879Z,5.23
2018-06-03T20:33:32.987Z,5.30
2018-06-03T20:36:02.472Z,5.80
2018-06-03T20:38:32.024Z,4.90
2018-06-03T20:41:02.354Z,4.80
2018-06-03T20:43:32.040Z,5.00
2018-06-03T20:46:01.962Z,5.07
2018-06-03T20:48:32.165Z,4.97
2018-06-03T20:51:01.822Z,5.00
2018-06-03T20:53:31.584Z,5.27
2018-06-03T20:56:01.588Z,5.97
2018-06-03T20:58:31.266Z,5.47
2018-06-03T21:01:01.467Z,5.20
2018-06-03T21:03:31.442Z,5.23
2018-06-03T21:06:01.892Z,5.57
2018-06-03T21:08:31.928Z,6.03
2018-06-03T21:11:01.607Z,5.37
2018-06-03T21:13:31.381Z,5.60
2018-06-03T21:16:01.562Z,5.63
2018-06-03T21:18:31.125Z,5.33
2018-06-03T21:21:01.123Z,5.40
2018-06-03T21:23:30.898Z,5.43
2018-06-03T21:26:00.527Z,5.20
2018-06-03T21:28:29.988Z,5.10
2018-06-03T21:30:59.510Z,5.37
2018-06-03T21:33:29.143Z,5.40
2018-06-03T21:35:59.110Z,5.93
2018-06-03T21:38:28.881Z,6.93
2018-06-03T21:40:58.530Z,5.80
2018-06-03T21:43:27.988Z,5.80
2018-06-03T21:45:57.760Z,6.00
2018-06-03T21:48:27.318Z,6.10
2018-06-03T21:50:56.822Z,6.60
2018-06-03T21:53:26.558Z,6.17
2018-06-03T21:55:55.889Z,6.17
2018-06-03T21:58:25.306Z,6.07
2018-06-03T22:00:54.774Z,6.60
2018-06-03T22:03:24.491Z,7.00
2018-06-03T22:05:53.969Z,6.13
2018-06-03T22:08:23.690Z,6.67
2018-06-03T22:10:54.068Z,7.73
2018-06-03T22:13:23.467Z,6.57
2018-06-03T22:15:53.211Z,6.97
2018-06-03T22:18:23.048Z,6.57
2018-06-03T22:20:52.893Z,8.27
2018-06-03T22:23:22.867Z,7.17
2018-06-03T22:25:52.520Z,6.73
2018-06-03T22:28:21.904Z,7.03
2018-06-03T22:30:52.033Z,7.93
2018-06-03T22:33:21.435Z,9.53
2018-06-03T22:35:51.078Z,7.33
2018-06-03T22:38:21.056Z,7.60
2018-06-03T22:40:50.618Z,7.60
2018-06-03T22:43:20.386Z,8.30
2018-06-03T22:45:50.028Z,7.83
2018-06-03T22:48:19.638Z,7.47
2018-06-03T22:50:49.230Z,8.00
2018-06-03T22:53:19.132Z,7.73
2018-06-03T22:55:48.617Z,7.63
2018-06-03T22:58:18.257Z,8.37
2018-06-03T23:00:47.948Z,7.67
2018-06-03T23:03:17.589Z,7.70
2018-06-03T23:05:47.354Z,7.47
2018-06-03T23:08:17.020Z,7.90
2018-06-03T23:10:46.577Z,8.30
2018-06-03T23:13:16.018Z,8.00
2018-06-03T23:15:45.902Z,7.87
2018-06-03T23:18:15.501Z,8.13
2018-06-03T23:20:44.813Z,7.77
2018-06-03T23:23:14.603Z,7.73
2018-06-03T23:25:44.688Z,8.30
2018-06-03T23:28:14.433Z,7.63
2018-06-03T23:30:44.323Z,7.97
2018-06-03T23:33:14.222Z,7.90
2018-06-03T23:35:43.891Z,8.47
2018-06-03T23:38:13.718Z,8.00
2018-06-03T23:40:43.257Z,7.83
2018-06-03T23:43:13.041Z,7.87
2018-06-03T23:45:43.053Z,8.23
2018-06-03T23:48:12.647Z,7.67
2018-06-03T23:50:42.060Z,7.97
2018-06-03T23:53:11.706Z,7.13
2018-06-03T23:55:41.146Z,7.27
2018-06-03T23:58:10.556Z,7.63
